sensor_id;sensor_type;location;lat;lon;timestamp;P1;durP1;ratioP1;P2;durP2;ratioP2
59950;SDS011;45812;53.540;9.774;2023-03-14T00:01:49;6.15;;;2.63;;
59950;SDS011;45812;53.540;9.774;2023-03-14T00:04:14;3.53;;;2.20;;
59950;SDS011;45812;53.540;9.774;2023-03-14T00:06:39;4.97;;;2.75;;
59950;SDS011;45812;53.540;9.774;2023-03-14T00:09:05;6.70;;;2.90;;
59950;SDS011;45812;53.540;9.774;2023-03-14T00:11:30;7.57;;;2.63;;
59950;SDS011;45812;53.540;9.774;2023-03-14T00:13:56;7.90;;;3.00;;
59950;SDS011;45812;53.540;9.774;2023-03-14T00:16:21;9.85;;;2.70;;
59950;SDS011;45812;53.540;9.774;2023-03-14T00:18:46;9.02;;;2.90;;
59950;SDS011;45812;53.540;9.774;2023-03-14T00:21:12;4.68;;;2.15;;
59950;SDS011;45812;53.540;9.774;2023-03-14T00:23:38;7.40;;;2.45;;
59950;SDS011;45812;53.540;9.774;2023-03-14T00:26:06;6.18;;;2.65;;
59950;SDS011;45812;53.540;9.774;2023-03-14T00:28:33;8.77;;;2.70;;
59950;SDS011;45812;53.540;9.774;2023-03-14T00:30:59;12.45;;;2.90;;
59950;SDS011;45812;53.540;9.774;2023-03-14T00:33:24;5.75;;;2.95;;
59950;SDS011;45812;53.540;9.774;2023-03-14T00:35:53;3.88;;;2.33;;
59950;SDS011;45812;53.540;9.774;2023-03-14T00:38:23;8.80;;;2.80;;
59950;SDS011;45812;53.540;9.774;2023-03-14T00:40:49;6.05;;;2.35;;
59950;SDS011;45812;53.540;9.774;2023-03-14T00:43:15;6.47;;;2.30;;
59950;SDS011;45812;53.540;9.774;2023-03-14T00:45:41;9.30;;;2.92;;
59950;SDS011;45812;53.540;9.774;2023-03-14T00:48:06;8.85;;;2.65;;
59950;SDS011;45812;53.540;9.774;2023-03-14T00:50:31;6.30;;;2.80;;
59950;SDS011;45812;53.540;9.774;2023-03-14T00:52:56;10.38;;;2.67;;
59950;SDS011;45812;53.540;9.774;2023-03-14T00:55:22;10.68;;;3.80;;
59950;SDS011;45812;53.540;9.774;2023-03-14T00:57:47;7.53;;;2.72;;
59950;SDS011;45812;53.540;9.774;2023-03-14T01:00:12;8.27;;;2.53;;
59950;SDS011;45812;53.540;9.774;2023-03-14T01:02:38;8.68;;;2.47;;
59950;SDS011;45812;53.540;9.774;2023-03-14T01:05:04;6.10;;;2.60;;
59950;SDS011;45812;53.540;9.774;2023-03-14T01:07:29;9.65;;;2.97;;
59950;SDS011;45812;53.540;9.774;2023-03-14T01:09:54;11.30;;;3.03;;
59950;SDS011;45812;53.540;9.774;2023-03-14T01:12:20;7.15;;;2.85;;
59950;SDS011;45812;53.540;9.774;2023-03-14T01:14:45;4.38;;;2.53;;
59950;SDS011;45812;53.540;9.774;2023-03-14T01:17:10;11.52;;;3.42;;
59950;SDS011;45812;53.540;9.774;2023-03-14T01:19:36;9.55;;;2.75;;
59950;SDS011;45812;53.540;9.774;2023-03-14T01:22:01;7.68;;;2.30;;
59950;SDS011;45812;53.540;9.774;2023-03-14T01:24:26;13.68;;;2.97;;
59950;SDS011;45812;53.540;9.774;2023-03-14T01:26:52;5.00;;;3.00;;
59950;SDS011;45812;53.540;9.774;2023-03-14T01:29:17;14.18;;;3.50;;
59950;SDS011;45812;53.540;9.774;2023-03-14T01:31:42;15.13;;;4.07;;
59950;SDS011;45812;53.540;9.774;2023-03-14T01:34:07;8.70;;;2.15;;
59950;SDS011;45812;53.540;9.774;2023-03-14T01:36:33;6.78;;;2.53;;
59950;SDS011;45812;53.540;9.774;2023-03-14T01:38:58;3.42;;;2.50;;
59950;SDS011;45812;53.540;9.774;2023-03-14T01:41:24;12.07;;;3.20;;
59950;SDS011;45812;53.540;9.774;2023-03-14T01:43:50;4.90;;;2.58;;
59950;SDS011;45812;53.540;9.774;2023-03-14T01:51:43;6.95;;;2.65;;
59950;SDS011;45812;53.540;9.774;2023-03-14T01:54:28;6.90;;;2.90;;
59950;SDS011;45812;53.540;9.774;2023-03-14T01:57:41;7.18;;;3.20;;
59950;SDS011;45812;53.540;9.774;2023-03-14T01:59:58;5.13;;;3.00;;
59950;SDS011;45812;53.540;9.774;2023-03-14T02:02:28;11.35;;;3.20;;
59950;SDS011;45812;53.540;9.774;2023-03-14T02:04:54;8.77;;;2.85;;
59950;SDS011;45812;53.540;9.774;2023-03-14T02:07:33;7.88;;;3.05;;
59950;SDS011;45812;53.540;9.774;2023-03-14T02:10:04;8.68;;;3.25;;
59950;SDS011;45812;53.540;9.774;2023-03-14T02:12:30;8.13;;;3.33;;
59950;SDS011;45812;53.540;9.774;2023-03-14T02:14:57;7.75;;;3.03;;
59950;SDS011;45812;53.540;9.774;2023-03-14T02:17:22;8.30;;;2.95;;
59950;SDS011;45812;53.540;9.774;2023-03-14T02:20:04;8.32;;;2.72;;
59950;SDS011;45812;53.540;9.774;2023-03-14T02:22:37;13.07;;;3.00;;
59950;SDS011;45812;53.540;9.774;2023-03-14T02:25:12;5.88;;;2.78;;
59950;SDS011;45812;53.540;9.774;2023-03-14T02:27:44;7.97;;;2.97;;
59950;SDS011;45812;53.540;9.774;2023-03-14T02:30:12;7.78;;;2.67;;
59950;SDS011;45812;53.540;9.774;2023-03-14T02:32:41;10.43;;;4.00;;
59950;SDS011;45812;53.540;9.774;2023-03-14T02:35:11;5.15;;;2.55;;
59950;SDS011;45812;53.540;9.774;2023-03-14T02:37:43;11.55;;;3.40;;
59950;SDS011;45812;53.540;9.774;2023-03-14T02:40:14;9.43;;;2.90;;
59950;SDS011;45812;53.540;9.774;2023-03-14T02:42:39;9.82;;;3.22;;
59950;SDS011;45812;53.540;9.774;2023-03-14T02:47:33;12.02;;;3.50;;
59950;SDS011;45812;53.540;9.774;2023-03-14T02:50:01;7.18;;;3.03;;
59950;SDS011;45812;53.540;9.774;2023-03-14T02:52:29;7.72;;;2.70;;
59950;SDS011;45812;53.540;9.774;2023-03-14T02:54:54;6.15;;;2.70;;
59950;SDS011;45812;53.540;9.774;2023-03-14T02:57:19;10.68;;;3.35;;
59950;SDS011;45812;53.540;9.774;2023-03-14T02:59:45;8.77;;;3.20;;
59950;SDS011;45812;53.540;9.774;2023-03-14T03:02:10;9.55;;;3.38;;
59950;SDS011;45812;53.540;9.774;2023-03-14T03:04:35;4.90;;;3.28;;
59950;SDS011;45812;53.540;9.774;2023-03-14T03:07:00;10.43;;;2.95;;
59950;SDS011;45812;53.540;9.774;2023-03-14T03:09:26;12.65;;;4.22;;
59950;SDS011;45812;53.540;9.774;2023-03-14T03:11:51;8.07;;;3.33;;
59950;SDS011;45812;53.540;9.774;2023-03-14T03:14:16;8.55;;;3.35;;
59950;SDS011;45812;53.540;9.774;2023-03-14T03:16:41;8.02;;;2.92;;
59950;SDS011;45812;53.540;9.774;2023-03-14T03:19:07;9.85;;;3.22;;
59950;SDS011;45812;53.540;9.774;2023-03-14T03:21:32;6.13;;;2.70;;
59950;SDS011;45812;53.540;9.774;2023-03-14T03:23:57;4.10;;;2.47;;
59950;SDS011;45812;53.540;9.774;2023-03-14T03:26:22;13.95;;;3.70;;
59950;SDS011;45812;53.540;9.774;2023-03-14T03:28:50;9.38;;;3.30;;
59950;SDS011;45812;53.540;9.774;2023-03-14T03:31:16;6.28;;;2.58;;
59950;SDS011;45812;53.540;9.774;2023-03-14T03:33:42;4.38;;;3.10;;
59950;SDS011;45812;53.540;9.774;2023-03-14T03:36:07;6.50;;;3.20;;
59950;SDS011;45812;53.540;9.774;2023-03-14T03:38:33;7.78;;;2.60;;
59950;SDS011;45812;53.540;9.774;2023-03-14T03:41:01;12.73;;;3.03;;
59950;SDS011;45812;53.540;9.774;2023-03-14T03:43:27;5.50;;;2.75;;
59950;SDS011;45812;53.540;9.774;2023-03-14T03:45:52;10.20;;;3.33;;
59950;SDS011;45812;53.540;9.774;2023-03-14T03:48:18;10.48;;;2.97;;
59950;SDS011;45812;53.540;9.774;2023-03-14T03:50:44;8.43;;;3.05;;
59950;SDS011;45812;53.540;9.774;2023-03-14T03:53:10;16.35;;;3.72;;
59950;SDS011;45812;53.540;9.774;2023-03-14T03:55:35;7.22;;;2.70;;
59950;SDS011;45812;53.540;9.774;2023-03-14T03:58:00;7.85;;;3.50;;
59950;SDS011;45812;53.540;9.774;2023-03-14T04:00:25;7.00;;;2.83;;
59950;SDS011;45812;53.540;9.774;2023-03-14T04:02:51;7.15;;;3.40;;
59950;SDS011;45812;53.540;9.774;2023-03-14T04:05:16;8.65;;;3.50;;
59950;SDS011;45812;53.540;9.774;2023-03-14T04:07:41;11.10;;;3.22;;
59950;SDS011;45812;53.540;9.774;2023-03-14T04:10:07;6.65;;;3.15;;
59950;SDS011;45812;53.540;9.774;2023-03-14T04:12:32;6.25;;;2.88;;
59950;SDS011;45812;53.540;9.774;2023-03-14T04:14:58;5.60;;;3.00;;
59950;SDS011;45812;53.540;9.774;2023-03-14T04:17:23;4.20;;;2.90;;
59950;SDS011;45812;53.540;9.774;2023-03-14T04:19:48;10.05;;;3.33;;
59950;SDS011;45812;53.540;9.774;2023-03-14T04:22:16;5.88;;;2.60;;
59950;SDS011;45812;53.540;9.774;2023-03-14T04:24:41;11.52;;;2.90;;
59950;SDS011;45812;53.540;9.774;2023-03-14T04:27:06;8.73;;;3.55;;
59950;SDS011;45812;53.540;9.774;2023-03-14T04:29:31;6.50;;;3.17;;
59950;SDS011;45812;53.540;9.774;2023-03-14T04:31:57;6.35;;;2.78;;
59950;SDS011;45812;53.540;9.774;2023-03-14T04:34:22;11.25;;;3.60;;
59950;SDS011;45812;53.540;9.774;2023-03-14T04:36:47;5.78;;;3.15;;
59950;SDS011;45812;53.540;9.774;2023-03-14T04:39:12;9.80;;;3.80;;
59950;SDS011;45812;53.540;9.774;2023-03-14T04:41:38;6.93;;;3.38;;
59950;SDS011;45812;53.540;9.774;2023-03-14T04:44:03;8.50;;;3.40;;
59950;SDS011;45812;53.540;9.774;2023-03-14T04:46:28;17.08;;;3.60;;
59950;SDS011;45812;53.540;9.774;2023-03-14T04:48:53;4.97;;;2.60;;
59950;SDS011;45812;53.540;9.774;2023-03-14T04:51:21;3.22;;;1.65;;
59950;SDS011;45812;53.540;9.774;2023-03-14T04:53:48;5.15;;;1.95;;
59950;SDS011;45812;53.540;9.774;2023-03-14T04:56:13;5.35;;;1.67;;
59950;SDS011;45812;53.540;9.774;2023-03-14T04:58:38;4.70;;;1.33;;
59950;SDS011;45812;53.540;9.774;2023-03-14T05:01:04;3.95;;;1.08;;
59950;SDS011;45812;53.540;9.774;2023-03-14T05:03:30;7.35;;;1.40;;
59950;SDS011;45812;53.540;9.774;2023-03-14T05:05:55;8.88;;;1.73;;
59950;SDS011;45812;53.540;9.774;2023-03-14T05:08:22;5.00;;;1.88;;
59950;SDS011;45812;53.540;9.774;2023-03-14T05:10:54;4.80;;;1.80;;
59950;SDS011;45812;53.540;9.774;2023-03-14T05:13:20;7.75;;;2.42;;
59950;SDS011;45812;53.540;9.774;2023-03-14T05:15:46;6.93;;;2.63;;
59950;SDS011;45812;53.540;9.774;2023-03-14T05:18:11;9.05;;;2.75;;
59950;SDS011;45812;53.540;9.774;2023-03-14T05:20:36;6.85;;;3.00;;
59950;SDS011;45812;53.540;9.774;2023-03-14T05:23:02;5.55;;;3.00;;
59950;SDS011;45812;53.540;9.774;2023-03-14T05:25:27;6.25;;;3.10;;
59950;SDS011;45812;53.540;9.774;2023-03-14T05:27:55;8.20;;;3.22;;
59950;SDS011;45812;53.540;9.774;2023-03-14T05:30:20;8.27;;;3.33;;
59950;SDS011;45812;53.540;9.774;2023-03-14T05:32:46;4.00;;;2.75;;
59950;SDS011;45812;53.540;9.774;2023-03-14T05:35:12;5.18;;;2.97;;
59950;SDS011;45812;53.540;9.774;2023-03-14T05:37:37;8.07;;;3.63;;
59950;SDS011;45812;53.540;9.774;2023-03-14T05:40:03;5.07;;;3.30;;
59950;SDS011;45812;53.540;9.774;2023-03-14T05:42:31;9.57;;;4.05;;
59950;SDS011;45812;53.540;9.774;2023-03-14T05:44:56;11.10;;;4.13;;
59950;SDS011;45812;53.540;9.774;2023-03-14T05:47:21;6.22;;;3.47;;
59950;SDS011;45812;53.540;9.774;2023-03-14T05:49:47;8.05;;;3.78;;
59950;SDS011;45812;53.540;9.774;2023-03-14T05:52:12;7.95;;;3.67;;
59950;SDS011;45812;53.540;9.774;2023-03-14T05:54:37;12.32;;;4.43;;
59950;SDS011;45812;53.540;9.774;2023-03-14T05:57:02;11.20;;;5.05;;
59950;SDS011;45812;53.540;9.774;2023-03-14T05:59:28;13.68;;;5.35;;
59950;SDS011;45812;53.540;9.774;2023-03-14T06:01:53;9.52;;;4.28;;
59950;SDS011;45812;53.540;9.774;2023-03-14T06:04:18;10.50;;;4.90;;
59950;SDS011;45812;53.540;9.774;2023-03-14T06:06:43;8.95;;;4.57;;
59950;SDS011;45812;53.540;9.774;2023-03-14T06:09:09;10.65;;;5.35;;
59950;SDS011;45812;53.540;9.774;2023-03-14T06:11:34;6.95;;;5.10;;
59950;SDS011;45812;53.540;9.774;2023-03-14T06:13:59;10.18;;;4.95;;
59950;SDS011;45812;53.540;9.774;2023-03-14T06:16:24;10.15;;;4.53;;
59950;SDS011;45812;53.540;9.774;2023-03-14T06:18:50;10.82;;;5.07;;
59950;SDS011;45812;53.540;9.774;2023-03-14T06:21:16;9.70;;;4.78;;
59950;SDS011;45812;53.540;9.774;2023-03-14T06:23:41;12.80;;;4.85;;
59950;SDS011;45812;53.540;9.774;2023-03-14T06:26:06;13.57;;;5.63;;
59950;SDS011;45812;53.540;9.774;2023-03-14T06:28:31;11.82;;;4.95;;
59950;SDS011;45812;53.540;9.774;2023-03-14T06:30:58;10.85;;;4.47;;
59950;SDS011;45812;53.540;9.774;2023-03-14T06:33:24;13.20;;;5.40;;
59950;SDS011;45812;53.540;9.774;2023-03-14T06:35:49;12.70;;;6.38;;
59950;SDS011;45812;53.540;9.774;2023-03-14T06:38:14;12.75;;;5.75;;
59950;SDS011;45812;53.540;9.774;2023-03-14T06:40:39;12.13;;;4.88;;
59950;SDS011;45812;53.540;9.774;2023-03-14T06:43:05;14.35;;;4.75;;
59950;SDS011;45812;53.540;9.774;2023-03-14T06:45:30;7.90;;;3.63;;
59950;SDS011;45812;53.540;9.774;2023-03-14T06:47:56;11.95;;;4.10;;
59950;SDS011;45812;53.540;9.774;2023-03-14T06:50:21;9.40;;;4.93;;
59950;SDS011;45812;53.540;9.774;2023-03-14T06:52:47;11.90;;;4.00;;
59950;SDS011;45812;53.540;9.774;2023-03-14T06:55:13;12.15;;;3.85;;
59950;SDS011;45812;53.540;9.774;2023-03-14T06:57:39;9.50;;;3.63;;
59950;SDS011;45812;53.540;9.774;2023-03-14T07:00:04;7.15;;;3.35;;
59950;SDS011;45812;53.540;9.774;2023-03-14T07:02:30;7.45;;;3.35;;
59950;SDS011;45812;53.540;9.774;2023-03-14T07:04:56;6.03;;;2.90;;
59950;SDS011;45812;53.540;9.774;2023-03-14T07:07:21;14.93;;;4.43;;
59950;SDS011;45812;53.540;9.774;2023-03-14T07:09:46;8.32;;;2.85;;
59950;SDS011;45812;53.540;9.774;2023-03-14T07:12:11;6.53;;;2.15;;
59950;SDS011;45812;53.540;9.774;2023-03-14T07:14:37;5.43;;;2.22;;
59950;SDS011;45812;53.540;9.774;2023-03-14T07:17:02;4.75;;;1.88;;
59950;SDS011;45812;53.540;9.774;2023-03-14T07:19:27;6.43;;;1.73;;
59950;SDS011;45812;53.540;9.774;2023-03-14T07:21:52;3.92;;;2.28;;
59950;SDS011;45812;53.540;9.774;2023-03-14T07:24:18;8.55;;;2.38;;
59950;SDS011;45812;53.540;9.774;2023-03-14T07:26:43;7.70;;;2.40;;
59950;SDS011;45812;53.540;9.774;2023-03-14T07:29:08;9.55;;;2.17;;
59950;SDS011;45812;53.540;9.774;2023-03-14T07:31:33;5.05;;;1.85;;
59950;SDS011;45812;53.540;9.774;2023-03-14T07:33:59;6.47;;;2.80;;
59950;SDS011;45812;53.540;9.774;2023-03-14T07:36:24;8.10;;;2.67;;
59950;SDS011;45812;53.540;9.774;2023-03-14T07:38:49;7.30;;;2.65;;
59950;SDS011;45812;53.540;9.774;2023-03-14T07:41:15;11.88;;;2.65;;
59950;SDS011;45812;53.540;9.774;2023-03-14T07:43:40;4.40;;;2.42;;
59950;SDS011;45812;53.540;9.774;2023-03-14T07:46:05;6.53;;;2.47;;
59950;SDS011;45812;53.540;9.774;2023-03-14T07:48:31;5.13;;;2.65;;
59950;SDS011;45812;53.540;9.774;2023-03-14T07:50:57;6.72;;;2.70;;
59950;SDS011;45812;53.540;9.774;2023-03-14T07:53:22;3.80;;;2.13;;
59950;SDS011;45812;53.540;9.774;2023-03-14T07:55:48;5.00;;;2.28;;
59950;SDS011;45812;53.540;9.774;2023-03-14T07:58:16;4.60;;;1.75;;
59950;SDS011;45812;53.540;9.774;2023-03-14T08:00:41;6.63;;;2.20;;
59950;SDS011;45812;53.540;9.774;2023-03-14T08:03:08;4.00;;;1.92;;
59950;SDS011;45812;53.540;9.774;2023-03-14T08:05:34;4.65;;;1.90;;
59950;SDS011;45812;53.540;9.774;2023-03-14T08:08:00;5.10;;;1.55;;
59950;SDS011;45812;53.540;9.774;2023-03-14T08:10:25;2.58;;;1.05;;
59950;SDS011;45812;53.540;9.774;2023-03-14T08:12:54;6.80;;;1.80;;
59950;SDS011;45812;53.540;9.774;2023-03-14T08:15:21;5.78;;;1.73;;
59950;SDS011;45812;53.540;9.774;2023-03-14T08:17:47;4.60;;;1.75;;
59950;SDS011;45812;53.540;9.774;2023-03-14T08:20:16;3.05;;;1.25;;
59950;SDS011;45812;53.540;9.774;2023-03-14T08:22:42;6.20;;;1.67;;
59950;SDS011;45812;53.540;9.774;2023-03-14T08:25:07;8.18;;;2.10;;
59950;SDS011;45812;53.540;9.774;2023-03-14T08:27:33;6.07;;;1.83;;
59950;SDS011;45812;53.540;9.774;2023-03-14T08:29:58;7.40;;;2.30;;
59950;SDS011;45812;53.540;9.774;2023-03-14T08:32:23;3.05;;;2.20;;
59950;SDS011;45812;53.540;9.774;2023-03-14T08:34:49;3.35;;;2.40;;
59950;SDS011;45812;53.540;9.774;2023-03-14T08:37:14;5.90;;;1.85;;
59950;SDS011;45812;53.540;9.774;2023-03-14T08:39:39;2.05;;;1.88;;
59950;SDS011;45812;53.540;9.774;2023-03-14T08:42:04;7.95;;;2.08;;
59950;SDS011;45812;53.540;9.774;2023-03-14T08:44:30;7.50;;;1.98;;
59950;SDS011;45812;53.540;9.774;2023-03-14T08:46:55;8.50;;;2.92;;
59950;SDS011;45812;53.540;9.774;2023-03-14T08:49:20;3.33;;;2.38;;
59950;SDS011;45812;53.540;9.774;2023-03-14T08:51:46;7.10;;;2.65;;
59950;SDS011;45812;53.540;9.774;2023-03-14T08:54:11;6.30;;;2.40;;
59950;SDS011;45812;53.540;9.774;2023-03-14T08:56:36;9.40;;;2.40;;
59950;SDS011;45812;53.540;9.774;2023-03-14T08:59:03;5.93;;;2.53;;
59950;SDS011;45812;53.540;9.774;2023-03-14T09:01:28;7.95;;;2.88;;
59950;SDS011;45812;53.540;9.774;2023-03-14T09:03:53;6.72;;;2.97;;
59950;SDS011;45812;53.540;9.774;2023-03-14T09:06:19;5.38;;;2.83;;
59950;SDS011;45812;53.540;9.774;2023-03-14T09:08:44;5.93;;;2.97;;
59950;SDS011;45812;53.540;9.774;2023-03-14T09:11:10;6.20;;;2.70;;
59950;SDS011;45812;53.540;9.774;2023-03-14T09:13:36;14.68;;;3.15;;
59950;SDS011;45812;53.540;9.774;2023-03-14T09:16:02;6.35;;;3.10;;
59950;SDS011;45812;53.540;9.774;2023-03-14T09:18:27;7.38;;;3.22;;
59950;SDS011;45812;53.540;9.774;2023-03-14T09:20:53;9.18;;;3.22;;
59950;SDS011;45812;53.540;9.774;2023-03-14T09:23:20;8.75;;;3.20;;
59950;SDS011;45812;53.540;9.774;2023-03-14T09:25:45;6.10;;;3.10;;
59950;SDS011;45812;53.540;9.774;2023-03-14T09:28:10;11.00;;;4.03;;
59950;SDS011;45812;53.540;9.774;2023-03-14T09:30:35;7.35;;;2.85;;
59950;SDS011;45812;53.540;9.774;2023-03-14T09:33:01;9.25;;;3.10;;
59950;SDS011;45812;53.540;9.774;2023-03-14T09:35:26;9.60;;;3.45;;
59950;SDS011;45812;53.540;9.774;2023-03-14T09:37:51;5.95;;;2.47;;
59950;SDS011;45812;53.540;9.774;2023-03-14T09:40:17;8.80;;;2.88;;
59950;SDS011;45812;53.540;9.774;2023-03-14T09:42:44;5.53;;;1.60;;
59950;SDS011;45812;53.540;9.774;2023-03-14T09:45:13;0.70;;;0.50;;
59950;SDS011;45812;53.540;9.774;2023-03-14T09:47:51;2.78;;;0.95;;
59950;SDS011;45812;53.540;9.774;2023-03-14T09:50:18;2.17;;;0.75;;
59950;SDS011;45812;53.540;9.774;2023-03-14T09:52:45;4.18;;;1.42;;
59950;SDS011;45812;53.540;9.774;2023-03-14T09:55:16;5.20;;;1.75;;
59950;SDS011;45812;53.540;9.774;2023-03-14T09:57:46;2.95;;;1.20;;
59950;SDS011;45812;53.540;9.774;2023-03-14T10:00:17;2.20;;;1.33;;
59950;SDS011;45812;53.540;9.774;2023-03-14T10:02:52;5.72;;;1.10;;
59950;SDS011;45812;53.540;9.774;2023-03-14T10:05:22;3.00;;;1.17;;
59950;SDS011;45812;53.540;9.774;2023-03-14T10:07:49;4.85;;;1.20;;
59950;SDS011;45812;53.540;9.774;2023-03-14T10:10:19;2.72;;;1.20;;
59950;SDS011;45812;53.540;9.774;2023-03-14T10:12:47;1.65;;;0.73;;
59950;SDS011;45812;53.540;9.774;2023-03-14T10:15:14;4.63;;;1.58;;
59950;SDS011;45812;53.540;9.774;2023-03-14T10:17:48;2.67;;;1.25;;
59950;SDS011;45812;53.540;9.774;2023-03-14T10:20:28;1.85;;;0.98;;
59950;SDS011;45812;53.540;9.774;2023-03-14T10:23:02;1.38;;;0.80;;
59950;SDS011;45812;53.540;9.774;2023-03-14T10:25:31;2.10;;;0.70;;
59950;SDS011;45812;53.540;9.774;2023-03-14T10:27:59;1.10;;;0.70;;
59950;SDS011;45812;53.540;9.774;2023-03-14T10:33:18;2.83;;;0.70;;
59950;SDS011;45812;53.540;9.774;2023-03-14T10:38:28;0.30;;;0.30;;
59950;SDS011;45812;53.540;9.774;2023-03-14T10:40:54;2.55;;;0.65;;
59950;SDS011;45812;53.540;9.774;2023-03-14T10:43:39;3.00;;;1.23;;
59950;SDS011;45812;53.540;9.774;2023-03-14T10:46:09;2.80;;;0.70;;
59950;SDS011;45812;53.540;9.774;2023-03-14T10:48:38;2.15;;;0.40;;
59950;SDS011;45812;53.540;9.774;2023-03-14T10:51:07;1.15;;;0.50;;
59950;SDS011;45812;53.540;9.774;2023-03-14T10:53:39;0.40;;;0.40;;
59950;SDS011;45812;53.540;9.774;2023-03-14T10:56:07;0.73;;;0.57;;
59950;SDS011;45812;53.540;9.774;2023-03-14T10:58:46;0.65;;;0.30;;
59950;SDS011;45812;53.540;9.774;2023-03-14T11:01:20;1.48;;;0.63;;
59950;SDS011;45812;53.540;9.774;2023-03-14T11:03:49;0.65;;;0.47;;
59950;SDS011;45812;53.540;9.774;2023-03-14T11:15:29;0.90;;;0.60;;
59950;SDS011;45812;53.540;9.774;2023-03-14T11:20:50;2.58;;;0.93;;
59950;SDS011;45812;53.540;9.774;2023-03-14T11:23:39;3.50;;;0.70;;
59950;SDS011;45812;53.540;9.774;2023-03-14T11:26:22;2.70;;;0.98;;
59950;SDS011;45812;53.540;9.774;2023-03-14T11:28:59;0.85;;;0.47;;
59950;SDS011;45812;53.540;9.774;2023-03-14T11:31:33;3.33;;;0.70;;
59950;SDS011;45812;53.540;9.774;2023-03-14T11:36:39;1.95;;;0.47;;
59950;SDS011;45812;53.540;9.774;2023-03-14T11:39:16;4.72;;;1.02;;
59950;SDS011;45812;53.540;9.774;2023-03-14T11:41:44;6.93;;;1.10;;
59950;SDS011;45812;53.540;9.774;2023-03-14T11:44:22;8.45;;;1.95;;
59950;SDS011;45812;53.540;9.774;2023-03-14T11:47:03;1.77;;;0.70;;
59950;SDS011;45812;53.540;9.774;2023-03-14T11:49:44;5.88;;;1.20;;
59950;SDS011;45812;53.540;9.774;2023-03-14T11:52:30;8.23;;;1.15;;
59950;SDS011;45812;53.540;9.774;2023-03-14T11:55:07;3.22;;;0.82;;
59950;SDS011;45812;53.540;9.774;2023-03-14T11:57:37;2.30;;;1.13;;
59950;SDS011;45812;53.540;9.774;2023-03-14T12:00:16;4.75;;;0.68;;
59950;SDS011;45812;53.540;9.774;2023-03-14T12:02:51;9.88;;;1.05;;
59950;SDS011;45812;53.540;9.774;2023-03-14T12:05:43;3.30;;;1.00;;
59950;SDS011;45812;53.540;9.774;2023-03-14T12:11:00;5.75;;;1.10;;
59950;SDS011;45812;53.540;9.774;2023-03-14T12:13:29;7.10;;;1.83;;
59950;SDS011;45812;53.540;9.774;2023-03-14T12:15:59;6.20;;;1.60;;
59950;SDS011;45812;53.540;9.774;2023-03-14T12:18:29;6.80;;;1.30;;
59950;SDS011;45812;53.540;9.774;2023-03-14T12:20:58;7.15;;;1.65;;
59950;SDS011;45812;53.540;9.774;2023-03-14T12:23:25;11.30;;;2.15;;
59950;SDS011;45812;53.540;9.774;2023-03-14T12:26:08;10.57;;;1.55;;
59950;SDS011;45812;53.540;9.774;2023-03-14T12:28:38;11.02;;;1.77;;
59950;SDS011;45812;53.540;9.774;2023-03-14T12:39:19;3.35;;;1.30;;
59950;SDS011;45812;53.540;9.774;2023-03-14T12:41:59;11.52;;;1.98;;
59950;SDS011;45812;53.540;9.774;2023-03-14T12:46:54;17.90;;;3.30;;
59950;SDS011;45812;53.540;9.774;2023-03-14T12:49:21;5.90;;;2.28;;
59950;SDS011;45812;53.540;9.774;2023-03-14T12:54:42;8.07;;;1.85;;
59950;SDS011;45812;53.540;9.774;2023-03-14T12:57:28;12.55;;;2.65;;
59950;SDS011;45812;53.540;9.774;2023-03-14T13:00:02;13.38;;;2.72;;
59950;SDS011;45812;53.540;9.774;2023-03-14T13:02:42;14.95;;;2.47;;
59950;SDS011;45812;53.540;9.774;2023-03-14T13:05:13;13.07;;;2.83;;
59950;SDS011;45812;53.540;9.774;2023-03-14T13:12:36;9.93;;;2.30;;
59950;SDS011;45812;53.540;9.774;2023-03-14T13:15:43;10.02;;;1.95;;
59950;SDS011;45812;53.540;9.774;2023-03-14T13:18:15;9.77;;;2.03;;
59950;SDS011;45812;53.540;9.774;2023-03-14T13:20:46;7.13;;;1.92;;
59950;SDS011;45812;53.540;9.774;2023-03-14T13:23:19;11.90;;;1.85;;
59950;SDS011;45812;53.540;9.774;2023-03-14T13:25:56;7.82;;;1.88;;
59950;SDS011;45812;53.540;9.774;2023-03-14T13:28:21;10.40;;;2.35;;
59950;SDS011;45812;53.540;9.774;2023-03-14T13:30:48;7.90;;;1.50;;
59950;SDS011;45812;53.540;9.774;2023-03-14T13:33:17;11.10;;;2.10;;
59950;SDS011;45812;53.540;9.774;2023-03-14T13:35:49;8.40;;;1.92;;
59950;SDS011;45812;53.540;9.774;2023-03-14T13:38:21;10.75;;;1.80;;
59950;SDS011;45812;53.540;9.774;2023-03-14T13:40:48;9.23;;;2.25;;
59950;SDS011;45812;53.540;9.774;2023-03-14T13:43:19;8.27;;;1.90;;
59950;SDS011;45812;53.540;9.774;2023-03-14T13:45:50;7.20;;;1.60;;
59950;SDS011;45812;53.540;9.774;2023-03-14T13:48:17;9.93;;;2.20;;
59950;SDS011;45812;53.540;9.774;2023-03-14T13:50:48;9.50;;;1.60;;
59950;SDS011;45812;53.540;9.774;2023-03-14T13:53:16;10.77;;;2.33;;
59950;SDS011;45812;53.540;9.774;2023-03-14T13:55:41;11.52;;;2.00;;
59950;SDS011;45812;53.540;9.774;2023-03-14T13:58:11;8.98;;;2.42;;
59950;SDS011;45812;53.540;9.774;2023-03-14T14:00:45;13.55;;;2.65;;
59950;SDS011;45812;53.540;9.774;2023-03-14T14:03:19;8.13;;;2.60;;
59950;SDS011;45812;53.540;9.774;2023-03-14T14:05:44;6.05;;;2.00;;
59950;SDS011;45812;53.540;9.774;2023-03-14T14:08:11;10.15;;;1.70;;
59950;SDS011;45812;53.540;9.774;2023-03-14T14:10:37;7.00;;;1.90;;
59950;SDS011;45812;53.540;9.774;2023-03-14T14:13:03;5.50;;;1.55;;
59950;SDS011;45812;53.540;9.774;2023-03-14T14:15:34;10.52;;;1.40;;
59950;SDS011;45812;53.540;9.774;2023-03-14T14:18:04;6.72;;;1.58;;
59950;SDS011;45812;53.540;9.774;2023-03-14T14:20:33;6.88;;;1.60;;
59950;SDS011;45812;53.540;9.774;2023-03-14T14:23:03;7.85;;;1.33;;
59950;SDS011;45812;53.540;9.774;2023-03-14T14:25:30;6.88;;;1.70;;
59950;SDS011;45812;53.540;9.774;2023-03-14T14:27:56;9.35;;;1.90;;
59950;SDS011;45812;53.540;9.774;2023-03-14T14:32:50;8.57;;;1.70;;
59950;SDS011;45812;53.540;9.774;2023-03-14T14:35:23;10.90;;;2.17;;
59950;SDS011;45812;53.540;9.774;2023-03-14T14:37:58;7.10;;;2.00;;
59950;SDS011;45812;53.540;9.774;2023-03-14T14:40:26;7.82;;;1.58;;
59950;SDS011;45812;53.540;9.774;2023-03-14T14:42:53;11.32;;;1.88;;
59950;SDS011;45812;53.540;9.774;2023-03-14T14:45:21;4.28;;;1.85;;
59950;SDS011;45812;53.540;9.774;2023-03-14T14:52:46;3.60;;;2.17;;
59950;SDS011;45812;53.540;9.774;2023-03-14T14:55:14;10.25;;;2.10;;
59950;SDS011;45812;53.540;9.774;2023-03-14T14:57:48;4.90;;;1.52;;
59950;SDS011;45812;53.540;9.774;2023-03-14T15:00:19;11.00;;;2.53;;
59950;SDS011;45812;53.540;9.774;2023-03-14T15:02:50;6.85;;;1.77;;
59950;SDS011;45812;53.540;9.774;2023-03-14T15:05:18;9.73;;;1.75;;
59950;SDS011;45812;53.540;9.774;2023-03-14T15:07:45;8.65;;;1.70;;
59950;SDS011;45812;53.540;9.774;2023-03-14T15:10:12;1.85;;;1.23;;
59950;SDS011;45812;53.540;9.774;2023-03-14T15:12:39;6.00;;;1.38;;
59950;SDS011;45812;53.540;9.774;2023-03-14T15:15:05;9.55;;;1.67;;
59950;SDS011;45812;53.540;9.774;2023-03-14T15:17:32;7.53;;;2.15;;
59950;SDS011;45812;53.540;9.774;2023-03-14T15:19:57;9.95;;;2.30;;
59950;SDS011;45812;53.540;9.774;2023-03-14T15:22:23;8.52;;;2.05;;
59950;SDS011;45812;53.540;9.774;2023-03-14T15:24:49;8.45;;;2.03;;
59950;SDS011;45812;53.540;9.774;2023-03-14T15:27:15;6.72;;;1.52;;
59950;SDS011;45812;53.540;9.774;2023-03-14T15:29:42;10.27;;;2.67;;
59950;SDS011;45812;53.540;9.774;2023-03-14T15:32:11;4.43;;;1.42;;
59950;SDS011;45812;53.540;9.774;2023-03-14T15:34:38;6.88;;;1.70;;
59950;SDS011;45812;53.540;9.774;2023-03-14T15:37:03;13.52;;;2.17;;
59950;SDS011;45812;53.540;9.774;2023-03-14T15:39:32;5.50;;;2.00;;
59950;SDS011;45812;53.540;9.774;2023-03-14T15:41:58;4.72;;;1.15;;
59950;SDS011;45812;53.540;9.774;2023-03-14T15:44:24;11.40;;;2.60;;
59950;SDS011;45812;53.540;9.774;2023-03-14T15:46:49;10.90;;;1.77;;